Time;durP1;ratioP1;P1;durP2;ratioP2;P2;SDS_P1;SDS_P2;PMS_P1;PMS_P2;Temp;Humidity;BMP_temperature;BMP_pressure;BME280_temperature;BME280_humidity;BME280_pressure;Samples;Min_cycle;Max_cycle;Signal;HPM_P1;HPM_P2
2021/12/22 09:25:11;;;;;;;11.35;7.68;;;;;;;10.58;96.88;102442.50;5054142;27;1888350;-79
2021/12/22 09:27:37;;;;;;;12.98;7.70;;;;;;;12.14;74.39;102435.94;5107852;28;20032;-79
2021/12/22 09:30:04;;;;;;;9.50;5.85;;;;;;;13.23;67.57;102437.59;5107311;28;20486;-81
2021/12/22 09:32:29;;;;;;;8.85;5.40;;;;;;;14.10;64.26;102445.22;5109899;28;20138;-81
2021/12/22 09:34:55;;;;;;;9.18;4.30;;;;;;;14.83;60.67;102446.72;5106295;28;20034;-81
2021/12/22 09:37:21;;;;;;;7.65;4.60;;;;;;;15.42;58.49;102435.09;5110286;28;20024;-81
2021/12/22 09:39:46;;;;;;;6.57;4.57;;;;;;;15.90;56.40;102439.38;5109276;28;20095;-81
2021/12/22 09:42:11;;;;;;;6.70;4.60;;;;;;;16.33;54.61;102442.75;5108832;28;20027;-81
2021/12/22 09:44:44;;;;;;;8.05;4.70;;;;;;;16.68;53.42;102443.63;5109192;28;20205;-81
2021/12/22 09:47:11;;;;;;;6.65;4.38;;;;;;;16.97;52.44;102439.38;5107605;28;20035;-81
2021/12/22 09:52:23;;;;;;;6.05;3.97;;;;;;;17.40;50.84;102430.31;5109845;28;20434;-80
2021/12/22 09:54:51;;;;;;;7.05;4.30;;;;;;;17.60;50.16;102431.47;5110492;28;20106;-81
2021/12/22 09:57:18;;;;;;;7.10;4.28;;;;;;;17.74;49.77;102434.56;5107696;28;20036;-81
2021/12/22 09:59:48;;;;;;;7.68;4.40;;;;;;;17.85;49.27;102428.94;5108906;28;20038;-82
2021/12/22 10:04:42;;;;;;;14.85;8.02;;;;;;;13.01;41.79;102441.31;5074504;27;20126;-84
2021/12/22 10:07:15;;;;;;;12.48;7.70;;;;;;;10.16;47.19;102445.91;5075301;28;20541;-83
2021/12/22 10:09:43;;;;;;;12.52;8.48;;;;;;;7.95;52.19;102458.28;5073726;28;20035;-85
2021/12/22 10:12:19;;;;;;;12.18;8.50;;;;;;;6.09;57.76;102458.06;5071719;28;20028;-83
2021/12/22 10:14:51;;;;;;;14.13;8.93;;;;;;;4.47;61.06;102463.00;5073804;28;20604;-84
2021/12/22 10:17:39;;;;;;;16.42;9.45;;;;;;;3.51;67.40;102468.09;5072716;28;20085;-87
2021/12/22 10:20:16;;;;;;;17.23;10.32;;;;;;;2.42;67.90;102464.66;5073788;28;20077;-85
2021/12/22 10:22:48;;;;;;;16.83;10.68;;;;;;;1.70;68.09;102465.53;5073725;28;20028;-85
2021/12/22 10:25:25;;;;;;;17.42;10.73;;;;;;;1.23;70.04;102468.88;5073915;28;20131;-84
2021/12/22 10:28:01;;;;;;;17.87;11.57;;;;;;;0.73;70.97;102466.06;5074017;28;20093;-85
2021/12/22 10:30:34;;;;;;;17.73;12.03;;;;;;;0.27;70.67;102464.97;5074481;28;20028;-86
2021/12/22 10:33:23;;;;;;;19.93;11.83;;;;;;;0.01;73.10;102467.25;5061533;28;20024;-84
2021/12/22 10:35:54;;;;;;;18.70;11.50;;;;;;;-0.29;73.25;102457.41;5072395;28;20388;-87
2021/12/22 10:38:28;;;;;;;23.33;12.63;;;;;;;-0.51;74.11;102456.44;5072796;28;20421;-88
2021/12/22 10:41:01;;;;;;;19.30;11.80;;;;;;;-0.67;75.13;102453.97;5073015;28;20056;-88
2021/12/22 10:43:30;;;;;;;21.87;12.20;;;;;;;-0.82;75.45;102449.91;5068273;28;20077;-87
2021/12/22 10:46:02;;;;;;;17.83;12.10;;;;;;;-0.91;76.19;102454.59;5072078;28;20025;-87
2021/12/22 10:51:20;;;;;;;21.80;12.07;;;;;;;-1.05;76.38;102447.94;5062383;28;19939;-88
2021/12/22 10:53:49;;;;;;;19.93;11.93;;;;;;;-1.14;77.72;102444.13;5069618;28;20039;-87
2021/12/22 10:56:26;;;;;;;23.20;12.50;;;;;;;-1.22;77.21;102443.75;5069300;28;20493;-87
2021/12/22 10:59:08;;;;;;;21.73;13.07;;;;;;;-1.26;77.26;102435.88;5070289;28;20387;-86
2021/12/22 11:01:36;;;;;;;22.80;12.18;;;;;;;-1.29;77.96;102426.41;5068815;28;20055;-86
2021/12/22 11:04:04;;;;;;;20.03;12.37;;;;;;;-1.29;77.23;102420.41;5065819;28;20131;-85
2021/12/22 11:06:32;;;;;;;20.10;12.77;;;;;;;-1.29;78.22;102417.84;5069205;28;20063;-88
2021/12/22 11:09:02;;;;;;;22.37;12.83;;;;;;;-1.29;78.08;102412.75;5068226;28;20028;-86
2021/12/22 11:11:39;;;;;;;25.53;13.20;;;;;;;-1.26;78.41;102410.34;5067872;28;20035;-87
2021/12/22 11:14:17;;;;;;;24.10;12.27;;;;;;;-1.23;78.27;102406.25;5067387;28;20031;-87
2021/12/22 11:17:03;;;;;;;22.53;14.20;;;;;;;-1.19;79.07;102402.16;5054700;28;20128;-87
2021/12/22 11:19:34;;;;;;;23.20;13.53;;;;;;;-1.14;78.80;102399.84;5057410;28;20040;-87
2021/12/22 11:22:35;;;;;;;24.23;14.50;;;;;;;-1.13;78.04;102407.56;5056106;28;20040;-87
2021/12/22 11:24:51;;;;;;;24.50;13.10;;;;;;;-1.09;77.60;102403.47;5054272;28;20052;-86
2021/12/22 11:27:23;;;;;;;22.43;13.80;;;;;;;-1.07;78.30;102406.97;5055686;28;20028;-84
2021/12/22 11:29:51;;;;;;;;;;;;;;;-0.99;77.93;102399.69;5055614;28;20088;-84
2021/12/22 11:32:19;;;;;;;20.60;12.43;;;;;;;-0.99;78.28;102404.78;5055267;28;19920;-83
2021/12/22 11:34:49;;;;;;;18.83;13.63;;;;;;;-0.95;78.12;102391.34;5055561;28;20217;-84
2021/12/22 11:37:15;;;;;;;25.93;14.23;;;;;;;-0.89;78.31;102389.09;5050483;28;20051;-83
2021/12/22 11:39:41;;;;;;;21.73;13.50;;;;;;;-0.83;77.84;102393.63;5054298;28;20032;-84
2021/12/22 11:42:08;;;;;;;20.30;13.80;;;;;;;-0.79;77.54;102391.28;5052551;28;20189;-82
2021/12/22 11:44:35;;;;;;;21.97;12.93;;;;;;;-0.78;76.82;102395.56;5050721;28;20468;-84
2021/12/22 11:47:07;;;;;;;24.67;13.60;;;;;;;-0.75;77.33;102383.75;5055074;28;20028;-83
2021/12/22 11:49:34;;;;;;;22.45;14.35;;;;;;;-0.73;76.73;102383.00;5052102;28;20028;-85
2021/12/22 11:52:02;;;;;;;24.13;14.47;;;;;;;-0.69;78.45;102384.03;5053363;28;20033;-84
2021/12/22 11:54:28;;;;;;;22.33;14.13;;;;;;;-0.63;77.63;102379.19;5054529;28;20059;-84
2021/12/22 11:56:56;;;;;;;22.17;14.67;;;;;;;-0.54;77.99;102378.72;5056572;28;20135;-84
2021/12/22 11:59:33;;;;;;;24.77;14.27;;;;;;;-0.51;77.49;102369.50;5053338;28;20043;-84
2021/12/22 12:02:27;;;;;;;22.50;14.33;;;;;;;-0.42;77.92;102370.75;5054678;28;20513;-85
2021/12/22 12:05:10;;;;;;;25.93;14.57;;;;;;;-0.41;77.90;102372.50;5053592;28;20475;-85
2021/12/22 12:07:55;;;;;;;22.43;15.03;;;;;;;-0.34;77.46;102366.81;5053351;28;20475;-86
2021/12/22 12:10:40;;;;;;;24.33;15.03;;;;;;;-0.29;77.34;102355.13;5050510;28;20028;-83
2021/12/22 12:13:23;;;;;;;22.63;15.00;;;;;;;-0.25;76.94;102351.00;5053298;28;21194;-84
2021/12/22 12:21:54;;;;;;;26.27;17.20;;;;;;;-0.19;76.69;102344.50;5055856;28;20044;-85
2021/12/22 12:24:39;;;;;;;27.30;17.87;;;;;;;-0.15;77.40;102330.16;5053956;28;20493;-85
2021/12/22 12:27:30;;;;;;;26.60;17.87;;;;;;;-0.13;76.63;102332.75;5053262;28;20050;-85
2021/12/22 12:30:20;;;;;;;27.90;18.98;;;;;;;-0.13;76.48;102328.53;4992512;28;20042;-84
2021/12/22 12:32:45;;;;;;;29.80;20.03;;;;;;;-0.16;76.57;102326.69;5055413;28;20406;-85
2021/12/22 12:35:28;;;;;;;28.90;20.50;;;;;;;-0.12;76.94;102319.16;5056271;28;20477;-86
2021/12/22 12:38:16;;;;;;;30.87;20.37;;;;;;;-0.10;77.17;102317.53;5053201;28;20036;-85
2021/12/22 12:41:05;;;;;;;29.33;19.87;;;;;;;-0.09;76.37;102317.63;5055652;28;20127;-85
2021/12/22 12:43:40;;;;;;;29.60;20.40;;;;;;;-0.07;76.11;102315.97;5052711;28;20448;-86
2021/12/22 12:46:29;;;;;;;26.30;19.53;;;;;;;-0.08;76.56;102310.81;5055151;28;20558;-85
2021/12/22 12:49:03;;;;;;;28.80;20.23;;;;;;;-0.09;76.79;102306.50;5051512;28;20043;-84
2021/12/22 12:51:32;;;;;;;28.50;20.03;;;;;;;-0.09;77.05;102307.41;5053805;28;20057;-84
2021/12/22 12:53:59;;;;;;;31.97;20.20;;;;;;;-0.05;76.61;102305.84;5054899;28;20471;-87
2021/12/22 12:56:33;;;;;;;28.07;20.67;;;;;;;-0.02;77.26;102303.41;5054873;28;20039;-86
2021/12/22 12:59:01;;;;;;;28.00;19.53;;;;;;;-0.06;77.43;102304.09;5053768;28;20048;-86
2021/12/22 13:01:50;;;;;;;31.50;19.60;;;;;;;0.02;77.04;102295.03;5052424;28;20116;-86
2021/12/22 13:04:37;;;;;;;25.13;19.27;;;;;;;0.03;76.96;102301.88;5053211;28;20060;-84
2021/12/22 13:07:13;;;;;;;28.83;18.37;;;;;;;0.02;76.72;102297.59;5052396;28;20546;-86
2021/12/22 13:09:40;;;;;;;24.87;18.10;;;;;;;0.03;76.77;102294.22;5051921;28;20029;-86
2021/12/22 13:12:19;;;;;;;25.90;18.97;;;;;;;0.06;76.71;102296.06;5054895;28;20028;-86
2021/12/22 13:17:42;;;;;;;27.00;18.40;;;;;;;0.10;77.33;102291.09;5053512;28;20070;-86
2021/12/22 13:20:15;;;;;;;25.73;18.92;;;;;;;0.09;77.16;102286.81;5049870;28;20040;-85
2021/12/22 13:22:45;;;;;;;27.33;17.27;;;;;;;0.05;76.72;102286.63;5043095;28;20385;-85
2021/12/22 13:25:14;;;;;;;26.57;17.60;;;;;;;0.04;76.88;102287.44;5053062;28;20029;-85
2021/12/22 13:27:41;;;;;;;25.83;17.47;;;;;;;0.01;77.37;102288.16;5050131;28;20029;-85
2021/12/22 13:30:09;;;;;;;28.10;17.20;;;;;;;0.01;77.55;102280.47;5057887;28;20024;-86
2021/12/22 13:32:36;;;;;;;25.07;17.30;;;;;;;-0.01;77.41;102261.66;5053714;28;20451;-84
2021/12/22 13:35:02;;;;;;;24.33;17.10;;;;;;;0.02;77.67;102268.56;5054984;28;20119;-84
2021/12/22 13:37:30;;;;;;;26.30;17.03;;;;;;;0.04;77.26;102257.59;5049193;28;20568;-85
2021/12/22 13:39:56;;;;;;;25.70;16.33;;;;;;;0.00;77.04;102260.84;5049136;28;20044;-85
2021/12/22 13:42:21;;;;;;;23.40;15.97;;;;;;;0.00;76.45;102242.94;5052024;28;20028;-85
2021/12/22 13:44:47;;;;;;;25.93;16.97;;;;;;;0.01;76.99;102256.59;5054324;28;20053;-85
2021/12/22 13:47:12;;;;;;;26.83;16.27;;;;;;;0.02;76.80;102248.97;5048343;28;20411;-85
2021/12/22 13:49:37;;;;;;;25.53;16.53;;;;;;;0.07;77.38;102237.25;5052957;28;20063;-86
2021/12/22 13:52:03;;;;;;;30.50;17.13;;;;;;;0.12;76.93;102240.88;5049748;28;20028;-87
2021/12/22 13:54:32;;;;;;;26.00;16.97;;;;;;;0.14;77.49;102238.34;5056213;28;20078;-85
2021/12/22 13:57:08;;;;;;;25.23;17.03;;;;;;;0.19;77.11;102230.84;5048961;28;20035;-85
2021/12/22 13:59:36;;;;;;;25.97;16.83;;;;;;;0.22;76.61;102230.97;5050190;28;20147;-85
2021/12/22 14:02:04;;;;;;;25.83;16.93;;;;;;;0.23;77.13;102233.63;5054498;28;20039;-85
2021/12/22 14:04:37;;;;;;;25.80;17.03;;;;;;;0.27;77.26;102234.59;5051656;28;20056;-85
2021/12/22 14:07:09;;;;;;;27.57;18.00;;;;;;;0.28;77.43;102238.91;5054506;28;21062;-86
2021/12/22 14:09:48;;;;;;;27.53;17.50;;;;;;;0.28;77.69;102229.53;5049430;28;20092;-85
2021/12/22 14:12:20;;;;;;;26.43;17.30;;;;;;;0.25;77.98;102220.88;5038177;28;20044;-85
2021/12/22 14:14:46;;;;;;;28.00;17.23;;;;;;;0.24;77.51;102214.00;5051251;28;20045;-84
2021/12/22 14:17:19;;;;;;;26.97;17.67;;;;;;;0.22;77.67;102216.53;5052804;28;20040;-86
2021/12/22 14:19:50;;;;;;;32.80;19.20;;;;;;;0.20;77.28;102213.03;5052861;28;20037;-86
2021/12/22 14:22:18;;;;;;;29.25;18.50;;;;;;;0.21;77.30;102209.66;5054458;28;20040;-86
2021/12/22 14:24:56;;;;;;;29.97;19.10;;;;;;;0.19;77.81;102208.72;5051381;28;20028;-86
2021/12/22 14:27:34;;;;;;;28.10;18.00;;;;;;;0.17;77.54;102196.69;5051800;28;20480;-86
2021/12/22 14:29:59;;;;;;;28.57;18.23;;;;;;;0.07;77.29;102198.00;5053913;28;20025;-85
2021/12/22 14:32:33;;;;;;;28.33;18.33;;;;;;;0.02;77.16;102196.94;5055552;28;20029;-85
2021/12/22 14:35:10;;;;;;;27.80;18.40;;;;;;;0.00;77.42;102194.34;5057808;28;20115;-85
2021/12/22 14:37:41;;;;;;;31.97;18.60;;;;;;;-0.03;77.35;102191.66;5055111;28;20032;-85
2021/12/22 14:40:24;;;;;;;28.17;18.90;;;;;;;-0.05;77.48;102194.13;5053194;28;20028;-84
2021/12/22 14:42:59;;;;;;;29.77;19.23;;;;;;;-0.12;77.64;102186.16;5053094;28;20036;-85
2021/12/22 14:45:34;;;;;;;29.33;19.00;;;;;;;-0.15;77.65;102192.03;5051464;28;20056;-85
2021/12/22 14:48:04;;;;;;;28.73;18.53;;;;;;;-0.18;77.78;102185.09;5049479;28;20444;-84
2021/12/22 14:50:30;;;;;;;28.50;18.33;;;;;;;-0.24;77.93;102184.84;5055787;28;20036;-85
2021/12/22 14:53:02;;;;;;;26.73;18.83;;;;;;;-0.27;77.71;102179.59;5057677;28;20024;-84
2021/12/22 14:55:33;;;;;;;;;;;;;;;-0.23;78.48;102171.25;5055887;28;20042;-84
2021/12/22 14:57:59;;;;;;;26.03;17.57;;;;;;;-0.32;78.05;102165.75;5055719;28;19920;-84
2021/12/22 15:00:24;;;;;;;25.53;17.87;;;;;;;-0.40;77.48;102167.13;5056045;28;20089;-85
2021/12/22 15:02:49;;;;;;;28.80;18.63;;;;;;;-0.44;77.97;102160.16;5051826;28;20345;-84
2021/12/22 15:05:14;;;;;;;30.83;18.50;;;;;;;-0.52;78.29;102158.16;5056103;28;20043;-84
2021/12/22 15:07:40;;;;;;;27.27;17.73;;;;;;;-0.58;78.62;102163.00;5057215;28;20033;-84
2021/12/22 15:10:05;;;;;;;28.07;18.63;;;;;;;-0.62;78.40;102150.91;5055227;28;20467;-84
2021/12/22 15:12:30;;;;;;;28.17;18.97;;;;;;;-0.68;78.82;102155.75;5057159;28;20040;-84
2021/12/22 15:14:56;;;;;;;28.63;18.87;;;;;;;-0.69;78.41;102161.69;5057477;28;20094;-85
2021/12/22 15:17:21;;;;;;;28.43;19.03;;;;;;;-0.78;78.72;102157.94;5059788;28;20423;-86
2021/12/22 15:19:46;;;;;;;29.10;19.03;;;;;;;-0.84;78.79;102157.66;5057274;28;20032;-85
2021/12/22 15:22:11;;;;;;;28.70;18.27;;;;;;;-0.89;78.86;102151.50;5054009;28;20082;-83
2021/12/22 15:24:37;;;;;;;30.20;18.70;;;;;;;-0.92;79.13;102147.13;5056918;28;20392;-83
2021/12/22 15:27:02;;;;;;;28.83;18.57;;;;;;;-0.96;79.18;102140.16;5057113;28;20058;-85
2021/12/22 15:29:27;;;;;;;29.83;19.47;;;;;;;-0.99;79.10;102144.22;5057720;28;20028;-84
2021/12/22 15:31:53;;;;;;;30.37;19.03;;;;;;;-1.02;79.44;102139.00;5057512;28;20078;-86
2021/12/22 15:34:18;;;;;;;30.70;19.60;;;;;;;-1.06;80.37;102132.88;5058330;28;20033;-85
2021/12/22 15:36:43;;;;;;;28.20;19.63;;;;;;;-1.08;79.89;102137.03;5055040;28;20028;-85
2021/12/22 15:39:09;;;;;;;28.87;19.30;;;;;;;-1.11;79.70;102127.59;5058350;28;20085;-85
2021/12/22 15:41:34;;;;;;;28.50;19.00;;;;;;;-1.15;79.74;102123.16;5055945;28;20044;-84
2021/12/22 15:43:59;;;;;;;29.77;19.10;;;;;;;-1.18;80.01;102130.66;5056291;28;20048;-85
2021/12/22 15:46:24;;;;;;;32.17;18.97;;;;;;;-1.24;80.35;102132.97;5056765;28;20032;-84
2021/12/22 15:48:50;;;;;;;29.07;19.33;;;;;;;-1.28;79.91;102120.88;5055822;28;20064;-85
2021/12/22 15:51:15;;;;;;;29.90;19.30;;;;;;;-1.29;79.82;102124.22;5059633;28;20056;-85
2021/12/22 15:53:40;;;;;;;33.30;19.33;;;;;;;-1.31;80.23;102121.63;5058673;28;20033;-84
2021/12/22 15:56:06;;;;;;;27.60;18.73;;;;;;;-1.39;79.47;102128.94;5057680;28;20123;-84
2021/12/22 15:58:31;;;;;;;29.67;19.23;;;;;;;-1.45;80.58;102123.56;5056779;28;20043;-85
2021/12/22 16:00:57;;;;;;;32.83;19.63;;;;;;;-1.44;80.71;102124.41;5053271;28;20789;-86
2021/12/22 16:03:22;;;;;;;35.70;20.43;;;;;;;-1.46;79.50;102116.69;5055224;28;20039;-84
2021/12/22 16:05:48;;;;;;;32.87;19.90;;;;;;;-1.47;79.66;102114.94;5057034;28;20029;-83
2021/12/22 16:08:13;;;;;;;32.03;19.93;;;;;;;-1.50;80.62;102114.81;5055531;28;20051;-85
2021/12/22 16:10:38;;;;;;;31.67;21.63;;;;;;;-1.51;80.08;102107.97;5057187;28;20033;-85
2021/12/22 16:13:04;;;;;;;32.53;20.53;;;;;;;-1.55;80.51;102104.41;5053901;28;20086;-85
2021/12/22 16:15:29;;;;;;;32.87;21.90;;;;;;;-1.57;80.50;102095.81;5059210;28;20025;-84
2021/12/22 16:17:54;;;;;;;33.33;21.30;;;;;;;-1.61;81.08;102091.34;5057173;28;20051;-84
2021/12/22 16:20:21;;;;;;;34.93;21.00;;;;;;;-1.63;80.51;102089.56;5055888;28;20090;-84
2021/12/22 16:22:47;;;;;;;34.07;20.83;;;;;;;-1.64;80.64;102087.81;5054640;28;20029;-84
2021/12/22 16:25:12;;;;;;;35.30;21.00;;;;;;;-1.68;81.25;102091.91;5057118;28;20091;-86
2021/12/22 16:27:38;;;;;;;32.57;20.70;;;;;;;-1.66;80.88;102089.41;5052737;28;20120;-84
2021/12/22 16:30:05;;;;;;;35.47;21.37;;;;;;;-1.70;80.76;102084.16;5053776;28;20426;-84
2021/12/22 16:32:30;;;;;;;32.60;19.77;;;;;;;-1.73;79.91;102086.59;5053853;28;20071;-84
2021/12/22 16:34:55;;;;;;;32.90;20.90;;;;;;;-1.76;80.73;102086.47;5051313;28;20059;-84
2021/12/22 16:37:21;;;;;;;36.37;21.27;;;;;;;-1.77;80.33;102078.72;5052766;28;20027;-84
2021/12/22 16:39:46;;;;;;;31.73;20.40;;;;;;;-1.80;80.42;102069.25;5052837;28;20052;-84
2021/12/22 16:42:12;;;;;;;33.80;21.00;;;;;;;-1.84;80.84;102068.25;5057926;28;20199;-85
2021/12/22 16:44:37;;;;;;;32.80;21.07;;;;;;;-1.85;80.67;102068.16;5057005;28;20028;-84
2021/12/22 16:47:03;;;;;;;32.37;20.77;;;;;;;-1.89;80.31;102063.75;5055218;28;20037;-83
2021/12/22 16:49:28;;;;;;;33.50;20.97;;;;;;;-1.91;80.61;102066.22;5052988;28;20041;-84
2021/12/22 16:51:54;;;;;;;35.30;21.07;;;;;;;-1.91;80.96;102065.38;5055088;28;20402;-84
2021/12/22 16:54:19;;;;;;;34.43;21.00;;;;;;;-1.95;80.69;102068.56;5055506;28;20020;-84
2021/12/22 16:56:44;;;;;;;29.90;20.77;;;;;;;-2.00;80.93;102071.78;5052565;28;20112;-84
2021/12/22 16:59:10;;;;;;;34.63;21.27;;;;;;;-1.99;80.72;102075.22;5055082;28;20464;-84
2021/12/22 17:01:36;;;;;;;37.13;20.77;;;;;;;-2.03;80.52;102066.53;5053740;28;20036;-84
2021/12/22 17:04:03;;;;;;;32.40;21.53;;;;;;;-2.05;80.33;102062.19;5056668;28;20381;-84
2021/12/22 17:06:32;;;;;;;31.13;20.50;;;;;;;-2.08;81.43;102056.94;5056800;28;20503;-84
2021/12/22 17:08:58;;;;;;;38.30;22.80;;;;;;;-2.07;81.03;102054.47;5054987;28;20032;-84
2021/12/22 17:11:23;;;;;;;33.93;22.90;;;;;;;-2.08;80.98;102057.81;5051521;28;20090;-84
2021/12/22 17:13:48;;;;;;;41.10;26.93;;;;;;;-2.11;81.13;102055.13;5050511;28;20028;-83
2021/12/22 17:16:13;;;;;;;40.43;26.30;;;;;;;-2.11;81.62;102051.69;5046319;28;20052;-85
2021/12/22 17:18:39;;;;;;;36.23;22.40;;;;;;;-2.11;81.15;102052.56;5053541;28;20639;-85
2021/12/22 17:21:07;;;;;;;37.13;23.07;;;;;;;-2.13;81.27;102046.53;5051214;28;20057;-85
2021/12/22 17:23:33;;;;;;;33.10;20.53;;;;;;;-2.11;81.21;102036.38;5049586;28;20059;-85
2021/12/22 17:25:59;;;;;;;31.97;20.23;;;;;;;-2.13;81.19;102036.31;5050267;28;20486;-85
2021/12/22 17:28:29;;;;;;;33.50;21.40;;;;;;;-2.13;80.93;102033.78;5052034;28;20029;-84
2021/12/22 17:30:56;;;;;;;30.47;20.37;;;;;;;-2.14;81.05;102024.38;5054510;28;20038;-84
2021/12/22 17:33:21;;;;;;;34.23;20.63;;;;;;;-2.15;80.73;102022.63;5052915;28;20029;-85
2021/12/22 17:35:47;;;;;;;34.00;21.10;;;;;;;-2.16;81.04;102023.44;5052763;28;20487;-84
2021/12/22 17:38:19;;;;;;;34.13;21.40;;;;;;;-2.17;80.61;102025.13;5047449;28;20029;-84
2021/12/22 17:40:45;;;;;;;35.45;23.10;;;;;;;-2.21;80.47;102025.78;5049583;28;20032;-85
2021/12/22 17:43:10;;;;;;;37.40;24.30;;;;;;;-2.19;80.50;102018.19;5047813;28;20033;-85
2021/12/22 17:45:35;;;;;;;32.37;21.87;;;;;;;-2.18;80.37;102014.84;5051808;28;20032;-85
2021/12/22 17:48:01;;;;;;;33.27;22.37;;;;;;;-2.16;81.32;102015.78;5052017;28;20112;-85
2021/12/22 17:50:26;;;;;;;37.27;22.43;;;;;;;-2.20;80.80;102017.31;5057097;28;20031;-86
2021/12/22 17:52:51;;;;;;;32.03;21.10;;;;;;;-2.18;81.02;102010.63;5049121;28;20085;-84
2021/12/22 17:55:17;;;;;;;33.33;23.57;;;;;;;-2.17;81.00;102011.50;5052549;28;20098;-85
2021/12/22 17:57:42;;;;;;;32.33;22.00;;;;;;;-2.19;81.39;102008.00;5048976;28;20091;-85
2021/12/22 18:00:09;;;;;;;39.60;29.23;;;;;;;-2.23;81.31;102006.13;5051156;28;20402;-85
2021/12/22 18:02:35;;;;;;;33.63;21.10;;;;;;;-2.21;81.43;102002.84;5053776;28;20033;-84
2021/12/22 18:05:01;;;;;;;34.30;20.87;;;;;;;-2.21;80.50;102007.03;5056613;28;20507;-84
2021/12/22 18:07:26;;;;;;;33.30;21.57;;;;;;;-2.24;81.09;102004.38;5050474;28;20024;-83
2021/12/22 18:09:51;;;;;;;34.87;20.27;;;;;;;-2.25;80.63;101997.53;5053544;28;20040;-84
2021/12/22 18:12:17;;;;;;;39.07;21.80;;;;;;;-2.26;80.93;101991.53;5051775;28;20037;-85
2021/12/22 18:14:42;;;;;;;31.97;20.77;;;;;;;-2.29;80.51;101996.50;5055144;28;20025;-85
2021/12/22 18:17:07;;;;;;;34.77;22.67;;;;;;;-2.33;80.25;101999.72;5055158;28;20104;-86
2021/12/22 18:19:36;;;;;;;37.10;22.23;;;;;;;-2.33;81.31;101998.03;5055694;28;20078;-86
2021/12/22 18:22:06;;;;;;;38.20;23.30;;;;;;;-2.36;81.37;101990.25;5053725;28;20031;-85
2021/12/22 18:24:32;;;;;;;36.10;23.50;;;;;;;-2.39;80.99;101982.47;5055226;28;20041;-85
2021/12/22 18:26:57;;;;;;;38.00;23.07;;;;;;;-2.39;81.23;101974.81;5061859;28;20032;-85
2021/12/22 18:29:23;;;;;;;34.67;22.50;;;;;;;-2.43;81.13;101972.94;5057023;28;20809;-85
2021/12/22 18:31:49;;;;;;;35.27;22.53;;;;;;;-2.46;80.60;101970.25;5056614;28;20988;-85
2021/12/22 18:34:18;;;;;;;42.20;27.50;;;;;;;-2.47;80.54;101964.25;5058413;28;20379;-86
2021/12/22 18:36:51;;;;;;;40.43;24.30;;;;;;;-2.50;81.11;101961.59;5055161;28;20028;-87
2021/12/22 18:39:18;;;;;;;35.70;23.67;;;;;;;-2.51;80.99;101961.50;5054068;28;20028;-85
2021/12/22 18:41:44;;;;;;;33.00;21.20;;;;;;;-2.51;80.95;101966.63;5055196;28;20036;-85
2021/12/22 18:44:09;;;;;;;37.83;21.07;;;;;;;-2.57;80.88;101967.19;5054438;28;20037;-85
2021/12/22 18:46:35;;;;;;;34.83;20.83;;;;;;;-2.56;81.01;101958.75;5055579;28;20037;-84
2021/12/22 18:49:02;;;;;;;36.33;22.50;;;;;;;-2.58;81.53;101960.38;5053750;28;20029;-85
2021/12/22 18:51:29;;;;;;;35.90;22.20;;;;;;;-2.58;81.12;101951.84;5059715;28;20020;-85
2021/12/22 18:53:57;;;;;;;36.77;22.87;;;;;;;-2.56;80.87;101945.16;5056572;28;20124;-86
2021/12/22 18:56:24;;;;;;;37.23;22.17;;;;;;;-2.59;80.95;101950.97;5059133;28;20021;-86
2021/12/22 18:58:50;;;;;;;37.07;22.40;;;;;;;-2.60;81.25;101944.13;5059413;28;20039;-83
2021/12/22 19:01:15;;;;;;;33.90;21.53;;;;;;;-2.57;81.48;101951.06;5056167;28;20033;-82
2021/12/22 19:03:41;;;;;;;34.47;22.87;;;;;;;-2.57;81.21;101938.31;5057329;28;20132;-85
2021/12/22 19:06:06;;;;;;;37.87;21.70;;;;;;;-2.56;81.60;101940.06;5059131;28;20566;-85
2021/12/22 19:08:31;;;;;;;39.40;23.47;;;;;;;-2.56;81.25;101940.06;5048101;28;21114;-86
2021/12/22 19:10:57;;;;;;;35.33;22.33;;;;;;;-2.58;81.72;101939.97;5048466;28;20034;-86
2021/12/22 19:13:22;;;;;;;37.80;23.67;;;;;;;-2.60;81.47;101932.28;5050267;28;20020;-85
2021/12/22 19:15:48;;;;;;;37.57;23.23;;;;;;;-2.57;81.63;101935.78;5047537;28;20035;-84
2021/12/22 19:18:13;;;;;;;36.07;22.20;;;;;;;-2.56;81.22;101940.06;5048735;28;20035;-84
2021/12/22 19:20:39;;;;;;;35.87;22.17;;;;;;;-2.56;81.19;101934.97;5049640;28;20036;-85
2021/12/22 19:23:04;;;;;;;36.43;21.30;;;;;;;-2.59;81.06;101935.69;5052538;28;20117;-85
2021/12/22 19:25:29;;;;;;;41.10;23.40;;;;;;;-2.60;81.39;101929.72;5046249;28;20079;-83
2021/12/22 19:27:58;;;;;;;39.20;24.37;;;;;;;-2.61;81.31;101922.88;5048828;28;20032;-84
2021/12/22 19:30:24;;;;;;;34.47;23.40;;;;;;;-2.65;80.85;101921.00;5047367;28;20050;-84
2021/12/22 19:32:49;;;;;;;37.70;23.27;;;;;;;-2.67;80.49;101922.59;5049424;28;20119;-85
2021/12/22 19:35:16;;;;;;;37.63;22.33;;;;;;;-2.70;80.97;101927.53;5048296;28;20056;-85
2021/12/22 19:37:42;;;;;;;32.57;21.77;;;;;;;-2.73;80.96;101932.50;5047881;28;20029;-84
2021/12/22 19:40:09;;;;;;;36.27;23.13;;;;;;;-2.74;81.53;101928.22;5047968;28;20060;-84
2021/12/22 19:42:34;;;;;;;36.43;21.73;;;;;;;-2.77;81.35;101921.28;5048890;28;20082;-84
2021/12/22 19:44:59;;;;;;;36.77;24.80;;;;;;;-2.76;80.89;101927.28;5048592;28;20471;-84
2021/12/22 19:47:25;;;;;;;32.50;21.77;;;;;;;-2.79;80.47;101917.81;5050164;28;20383;-86
2021/12/22 19:49:52;;;;;;;32.40;21.60;;;;;;;-2.80;80.00;101920.28;5050244;28;20021;-86
2021/12/22 19:52:18;;;;;;;34.40;20.97;;;;;;;-2.83;80.88;101915.94;5050087;28;20040;-86
2021/12/22 19:54:43;;;;;;;39.00;21.13;;;;;;;-2.82;80.80;101921.88;5046553;28;20032;-83
2021/12/22 19:57:09;;;;;;;36.70;21.90;;;;;;;-2.83;80.64;101917.59;5052224;28;20028;-85
2021/12/22 19:59:34;;;;;;;43.03;24.13;;;;;;;-2.84;80.72;101920.94;5053783;28;20463;-84
2021/12/22 20:01:59;;;;;;;35.60;21.43;;;;;;;-2.86;80.71;101917.44;5052013;28;20148;-86
2021/12/22 20:04:26;;;;;;;35.80;20.13;;;;;;;-2.87;80.74;101908.06;5050786;28;20041;-86
2021/12/22 20:06:52;;;;;;;38.57;22.30;;;;;;;-2.91;79.94;101910.50;5053034;28;20036;-84
2021/12/22 20:09:18;;;;;;;40.00;23.53;;;;;;;-2.91;80.59;101918.13;5052635;28;20055;-84
2021/12/22 20:11:44;;;;;;;40.00;23.80;;;;;;;-2.92;80.21;101918.94;5055433;28;20871;-85
2021/12/22 20:14:10;;;;;;;41.53;22.90;;;;;;;-2.93;80.35;101922.28;5053409;28;20051;-85
2021/12/22 20:16:36;;;;;;;41.93;24.57;;;;;;;-2.92;81.07;101924.03;5053002;28;20504;-84
2021/12/22 20:19:01;;;;;;;39.03;22.43;;;;;;;-2.91;81.70;101920.66;5053443;28;20053;-84
2021/12/22 20:21:26;;;;;;;36.93;21.83;;;;;;;-2.88;80.85;101906.31;5056892;28;20052;-84
2021/12/22 20:23:52;;;;;;;33.83;21.33;;;;;;;-2.90;80.91;101909.66;5050383;28;20037;-84
2021/12/22 20:26:18;;;;;;;32.80;20.90;;;;;;;-2.93;80.10;101899.34;5053564;28;20033;-86
2021/12/22 20:28:44;;;;;;;36.90;23.20;;;;;;;-2.94;80.08;101897.59;5048249;28;20032;-85
2021/12/22 20:31:10;;;;;;;43.13;25.93;;;;;;;-2.97;80.08;101897.47;5051240;28;20028;-86
2021/12/22 20:33:35;;;;;;;43.27;27.30;;;;;;;-2.98;81.08;101884.63;5046965;28;20079;-84
2021/12/22 20:36:01;;;;;;;47.00;26.87;;;;;;;-2.98;81.23;101875.34;5052831;28;20583;-84
2021/12/22 20:38:27;;;;;;;38.87;23.77;;;;;;;-2.99;80.97;101877.84;5052054;28;20204;-84
2021/12/22 20:40:53;;;;;;;37.83;23.40;;;;;;;-2.99;81.28;101868.50;5053791;28;20578;-85
2021/12/22 20:43:20;;;;;;;39.20;22.10;;;;;;;-2.99;81.08;101868.50;5053629;28;20154;-82
2021/12/22 20:45:49;;;;;;;36.03;21.30;;;;;;;-2.99;80.84;101863.41;5050582;28;20035;-83
2021/12/22 20:48:16;;;;;;;32.90;19.53;;;;;;;-3.01;80.17;101870.09;5046996;28;20040;-83
2021/12/22 20:50:41;;;;;;;35.20;20.40;;;;;;;-3.05;80.21;101866.56;5052770;28;20020;-83
2021/12/22 20:53:08;;;;;;;37.20;23.07;;;;;;;-3.03;80.51;101861.50;5054016;28;20697;-83
2021/12/22 20:55:33;;;;;;;39.07;23.43;;;;;;;-3.00;80.58;101871.84;5052577;28;20036;-84
2021/12/22 20:57:59;;;;;;;36.83;23.57;;;;;;;-3.00;81.12;101861.66;5054842;28;20021;-84
2021/12/22 21:00:27;;;;;;;36.93;21.93;;;;;;;-2.97;80.69;101861.81;5045570;28;20024;-83